sensor_id;sensor_type;location;lat;lon;timestamp;pressure;altitude;pressure_sealevel;temperature;humidity
75855;BME280;64502;59.976;30.316;2023-08-24T00:01:30;101144.28;;;13.41;69.81
75855;BME280;64502;59.976;30.316;2023-08-24T00:03:56;101138.16;;;13.40;70.78
75855;BME280;64502;59.976;30.316;2023-08-24T00:06:21;101142.59;;;13.40;71.27
75855;BME280;64502;59.976;30.316;2023-08-24T00:08:47;101144.28;;;13.41;70.34
75855;BME280;64502;59.976;30.316;2023-08-24T00:11:13;101141.66;;;13.41;70.65
75855;BME280;64502;59.976;30.316;2023-08-24T00:13:41;101139.97;;;13.40;71.14
75855;BME280;64502;59.976;30.316;2023-08-24T00:16:11;101147.91;;;13.40;71.32
75855;BME280;64502;59.976;30.316;2023-08-24T00:18:37;101139.19;;;13.38;70.47
75855;BME280;64502;59.976;30.316;2023-08-24T00:21:02;101144.50;;;13.38;70.59
75855;BME280;64502;59.976;30.316;2023-08-24T00:23:28;101145.34;;;13.38;71.34
75855;BME280;64502;59.976;30.316;2023-08-24T00:25:53;101149.59;;;13.41;70.92
75855;BME280;64502;59.976;30.316;2023-08-24T00:28:19;101149.50;;;13.42;70.88
75855;BME280;64502;59.976;30.316;2023-08-24T00:30:45;101149.31;;;13.45;71.10
75855;BME280;64502;59.976;30.316;2023-08-24T00:33:10;101147.22;;;13.50;70.86
75855;BME280;64502;59.976;30.316;2023-08-24T00:35:36;101151.28;;;13.56;71.08
75855;BME280;64502;59.976;30.316;2023-08-24T00:38:01;101142.16;;;13.60;70.71
75855;BME280;64502;59.976;30.316;2023-08-24T00:40:27;101142.72;;;13.65;71.51
75855;BME280;64502;59.976;30.316;2023-08-24T00:42:52;101137.13;;;13.70;70.52
75855;BME280;64502;59.976;30.316;2023-08-24T00:45:18;101144.78;;;13.74;70.18
75855;BME280;64502;59.976;30.316;2023-08-24T00:47:45;101148.09;;;13.78;71.41
75855;BME280;64502;59.976;30.316;2023-08-24T00:50:11;101145.25;;;13.81;70.27
75855;BME280;64502;59.976;30.316;2023-08-24T00:52:38;101150.25;;;13.86;70.28
75855;BME280;64502;59.976;30.316;2023-08-24T00:55:05;101150.06;;;13.89;71.04
75855;BME280;64502;59.976;30.316;2023-08-24T00:57:31;101154.13;;;13.94;70.48
75855;BME280;64502;59.976;30.316;2023-08-24T00:59:59;101152.88;;;14.00;70.16
75855;BME280;64502;59.976;30.316;2023-08-24T01:02:27;101152.75;;;14.02;70.21
75855;BME280;64502;59.976;30.316;2023-08-24T01:04:53;101150.75;;;14.05;70.11
75855;BME280;64502;59.976;30.316;2023-08-24T01:07:18;101152.25;;;14.09;69.27
75855;BME280;64502;59.976;30.316;2023-08-24T01:09:44;101148.63;;;14.10;70.11
75855;BME280;64502;59.976;30.316;2023-08-24T01:15:14;101150.06;;;14.16;68.89
75855;BME280;64502;59.976;30.316;2023-08-24T01:17:43;101143.78;;;14.17;70.30
75855;BME280;64502;59.976;30.316;2023-08-24T01:20:10;101153.56;;;14.16;69.65
75855;BME280;64502;59.976;30.316;2023-08-24T01:22:54;101148.03;;;14.19;69.20
75855;BME280;64502;59.976;30.316;2023-08-24T01:25:36;101149.84;;;14.19;69.50
75855;BME280;64502;59.976;30.316;2023-08-24T01:28:03;101141.00;;;14.18;69.46
75855;BME280;64502;59.976;30.316;2023-08-24T01:30:30;101138.34;;;14.18;69.37
75855;BME280;64502;59.976;30.316;2023-08-24T01:32:56;101136.66;;;14.17;69.10
75855;BME280;64502;59.976;30.316;2023-08-24T01:35:22;101141.00;;;14.18;69.51
75855;BME280;64502;59.976;30.316;2023-08-24T01:37:47;101138.25;;;14.20;69.42
75855;BME280;64502;59.976;30.316;2023-08-24T01:40:51;101141.47;;;14.25;67.93
75855;BME280;64502;59.976;30.316;2023-08-24T01:43:20;101146.88;;;14.24;69.41
75855;BME280;64502;59.976;30.316;2023-08-24T01:45:47;101144.97;;;14.26;68.75
75855;BME280;64502;59.976;30.316;2023-08-24T01:48:14;101144.13;;;14.25;69.11
75855;BME280;64502;59.976;30.316;2023-08-24T01:50:41;101146.78;;;14.25;69.33
75855;BME280;64502;59.976;30.316;2023-08-24T01:53:07;101147.81;;;14.23;69.53
75855;BME280;64502;59.976;30.316;2023-08-24T01:55:32;101156.75;;;14.21;69.63
75855;BME280;64502;59.976;30.316;2023-08-24T01:57:58;101168.44;;;14.19;69.29
75855;BME280;64502;59.976;30.316;2023-08-24T02:00:23;101160.47;;;14.19;69.45
75855;BME280;64502;59.976;30.316;2023-08-24T02:02:49;101156.00;;;14.19;70.03
75855;BME280;64502;59.976;30.316;2023-08-24T02:05:14;101157.81;;;14.19;69.37
75855;BME280;64502;59.976;30.316;2023-08-24T02:07:40;101150.69;;;14.19;70.05
75855;BME280;64502;59.976;30.316;2023-08-24T02:10:06;101144.53;;;14.19;69.93
75855;BME280;64502;59.976;30.316;2023-08-24T02:12:31;101155.16;;;14.19;69.56
75855;BME280;64502;59.976;30.316;2023-08-24T02:14:57;101153.34;;;14.19;70.05
75855;BME280;64502;59.976;30.316;2023-08-24T02:17:22;101148.03;;;14.19;70.02
75855;BME280;64502;59.976;30.316;2023-08-24T02:19:49;101147.19;;;14.19;69.80
75855;BME280;64502;59.976;30.316;2023-08-24T02:22:14;101155.16;;;14.19;69.40
75855;BME280;64502;59.976;30.316;2023-08-24T02:24:40;101149.84;;;14.19;69.34
75855;BME280;64502;59.976;30.316;2023-08-24T02:27:05;101157.69;;;14.20;69.93
75855;BME280;64502;59.976;30.316;2023-08-24T02:29:30;101149.63;;;14.22;69.50
75855;BME280;64502;59.976;30.316;2023-08-24T02:31:56;101144.22;;;14.24;69.44
75855;BME280;64502;59.976;30.316;2023-08-24T02:34:22;101150.28;;;14.26;69.30
75855;BME280;64502;59.976;30.316;2023-08-24T02:36:47;101151.88;;;14.28;68.50
75855;BME280;64502;59.976;30.316;2023-08-24T02:39:13;101147.41;;;14.29;68.39
75855;BME280;64502;59.976;30.316;2023-08-24T02:41:38;101143.06;;;14.28;68.73
75855;BME280;64502;59.976;30.316;2023-08-24T02:44:04;101152.72;;;14.29;69.11
75855;BME280;64502;59.976;30.316;2023-08-24T02:46:30;101149.97;;;14.30;68.73
75855;BME280;64502;59.976;30.316;2023-08-24T02:48:55;101148.81;;;14.34;68.20
75855;BME280;64502;59.976;30.316;2023-08-24T02:51:22;101152.31;;;14.35;68.02
75855;BME280;64502;59.976;30.316;2023-08-24T02:53:50;101157.63;;;14.35;68.38
75855;BME280;64502;59.976;30.316;2023-08-24T02:56:15;101156.78;;;14.34;68.19
75855;BME280;64502;59.976;30.316;2023-08-24T02:58:41;101154.22;;;14.33;68.39
75855;BME280;64502;59.976;30.316;2023-08-24T03:01:07;101154.88;;;14.36;68.39
75855;BME280;64502;59.976;30.316;2023-08-24T03:03:36;101150.19;;;14.40;68.24
75855;BME280;64502;59.976;30.316;2023-08-24T03:06:07;101153.53;;;14.43;68.50
75855;BME280;64502;59.976;30.316;2023-08-24T03:08:33;101150.75;;;14.45;67.89
75855;BME280;64502;59.976;30.316;2023-08-24T03:11:00;101145.13;;;14.50;68.82
75855;BME280;64502;59.976;30.316;2023-08-24T03:13:26;101151.09;;;14.53;67.82
75855;BME280;64502;59.976;30.316;2023-08-24T03:15:52;101152.63;;;14.57;67.45
75855;BME280;64502;59.976;30.316;2023-08-24T03:18:18;101148.03;;;14.59;66.29
75855;BME280;64502;59.976;30.316;2023-08-24T03:20:45;101155.91;;;14.61;66.39
75855;BME280;64502;59.976;30.316;2023-08-24T03:23:11;101157.50;;;14.63;66.62
75855;BME280;64502;59.976;30.316;2023-08-24T03:25:38;101158.25;;;14.65;66.51
75855;BME280;64502;59.976;30.316;2023-08-24T03:28:05;101164.41;;;14.66;65.98
75855;BME280;64502;59.976;30.316;2023-08-24T03:30:33;101167.16;;;14.64;65.84
75855;BME280;64502;59.976;30.316;2023-08-24T03:32:59;101160.38;;;14.60;65.73
75855;BME280;64502;59.976;30.316;2023-08-24T03:35:25;101166.63;;;14.59;65.35
75855;BME280;64502;59.976;30.316;2023-08-24T03:37:50;101171.19;;;14.57;65.51
75855;BME280;64502;59.976;30.316;2023-08-24T03:40:16;101160.78;;;14.54;66.09
75855;BME280;64502;59.976;30.316;2023-08-24T03:42:42;101166.94;;;14.55;64.97
75855;BME280;64502;59.976;30.316;2023-08-24T03:45:07;101162.56;;;14.54;65.48
75855;BME280;64502;59.976;30.316;2023-08-24T03:47:33;101167.03;;;14.53;64.53
75855;BME280;64502;59.976;30.316;2023-08-24T03:49:59;101160.88;;;14.53;64.45
75855;BME280;64502;59.976;30.316;2023-08-24T03:52:25;101163.59;;;14.51;65.11
75855;BME280;64502;59.976;30.316;2023-08-24T03:54:50;101166.25;;;14.51;64.72
75855;BME280;64502;59.976;30.316;2023-08-24T03:57:16;101165.53;;;14.49;65.02
75855;BME280;64502;59.976;30.316;2023-08-24T03:59:42;101167.50;;;14.46;65.10
75855;BME280;64502;59.976;30.316;2023-08-24T04:02:07;101166.78;;;14.43;64.99
75855;BME280;64502;59.976;30.316;2023-08-24T04:04:33;101166.13;;;14.40;66.05
75855;BME280;64502;59.976;30.316;2023-08-24T04:06:58;101164.53;;;14.37;64.99
75855;BME280;64502;59.976;30.316;2023-08-24T04:09:25;101159.22;;;14.37;65.05
75855;BME280;64502;59.976;30.316;2023-08-24T04:11:51;101165.19;;;14.41;64.79
75855;BME280;64502;59.976;30.316;2023-08-24T04:14:16;101163.16;;;14.44;64.37
75855;BME280;64502;59.976;30.316;2023-08-24T04:16:42;101168.19;;;14.49;64.32
75855;BME280;64502;59.976;30.316;2023-08-24T04:19:07;101168.84;;;14.53;63.02
75855;BME280;64502;59.976;30.316;2023-08-24T04:21:33;101169.38;;;14.58;64.06
75855;BME280;64502;59.976;30.316;2023-08-24T04:23:59;101173.44;;;14.63;62.77
75855;BME280;64502;59.976;30.316;2023-08-24T04:26:24;101178.97;;;14.73;63.00
75855;BME280;64502;59.976;30.316;2023-08-24T04:28:50;101178.34;;;14.82;63.04
75855;BME280;64502;59.976;30.316;2023-08-24T04:31:15;101177.28;;;14.98;62.09
75855;BME280;64502;59.976;30.316;2023-08-24T04:33:41;101173.03;;;15.08;62.29
75855;BME280;64502;59.976;30.316;2023-08-24T04:36:06;101180.78;;;15.24;61.91
75855;BME280;64502;59.976;30.316;2023-08-24T04:38:32;101186.19;;;15.35;61.49
75855;BME280;64502;59.976;30.316;2023-08-24T04:40:57;101178.06;;;15.49;60.63
75855;BME280;64502;59.976;30.316;2023-08-24T04:43:24;101172.72;;;15.62;60.92
75855;BME280;64502;59.976;30.316;2023-08-24T04:45:50;101179.88;;;15.74;60.72
75855;BME280;64502;59.976;30.316;2023-08-24T04:48:18;101171.19;;;15.84;60.56
75855;BME280;64502;59.976;30.316;2023-08-24T04:50:44;101167.66;;;15.96;59.95
75855;BME280;64502;59.976;30.316;2023-08-24T04:53:15;101172.16;;;16.07;59.73
75855;BME280;64502;59.976;30.316;2023-08-24T04:55:41;101164.81;;;16.10;58.87
75855;BME280;64502;59.976;30.316;2023-08-24T04:58:08;101167.25;;;16.13;59.08
75855;BME280;64502;59.976;30.316;2023-08-24T05:00:34;101166.41;;;16.13;58.39
75855;BME280;64502;59.976;30.316;2023-08-24T05:03:01;101163.22;;;16.08;59.11
75855;BME280;64502;59.976;30.316;2023-08-24T05:05:29;101166.84;;;16.07;59.22
75855;BME280;64502;59.976;30.316;2023-08-24T05:07:57;101165.16;;;16.06;58.91
75855;BME280;64502;59.976;30.316;2023-08-24T05:10:24;101164.31;;;16.05;59.36
75855;BME280;64502;59.976;30.316;2023-08-24T05:12:49;101156.66;;;16.01;58.00
75855;BME280;64502;59.976;30.316;2023-08-24T05:15:15;101156.03;;;15.97;58.82
75855;BME280;64502;59.976;30.316;2023-08-24T05:17:41;101153.69;;;15.92;58.80
75855;BME280;64502;59.976;30.316;2023-08-24T05:20:07;101148.94;;;15.85;59.61
75855;BME280;64502;59.976;30.316;2023-08-24T05:22:33;101146.28;;;15.85;58.89
75855;BME280;64502;59.976;30.316;2023-08-24T05:24:59;101139.38;;;15.82;58.66
75855;BME280;64502;59.976;30.316;2023-08-24T05:27:25;101142.16;;;15.81;59.36
75855;BME280;64502;59.976;30.316;2023-08-24T05:29:50;101145.66;;;15.81;59.47
75855;BME280;64502;59.976;30.316;2023-08-24T05:32:15;101148.31;;;15.81;58.91
75855;BME280;64502;59.976;30.316;2023-08-24T05:34:41;101152.56;;;15.84;58.32
75855;BME280;64502;59.976;30.316;2023-08-24T05:37:07;101150.44;;;15.89;58.77
75855;BME280;64502;59.976;30.316;2023-08-24T05:39:32;101143.69;;;15.96;57.80
75855;BME280;64502;59.976;30.316;2023-08-24T05:41:58;101140.69;;;16.01;57.12
75855;BME280;64502;59.976;30.316;2023-08-24T05:44:24;101149.75;;;15.98;56.87
75855;BME280;64502;59.976;30.316;2023-08-24T05:46:49;101153.84;;;15.91;57.01
75855;BME280;64502;59.976;30.316;2023-08-24T05:49:14;101153.31;;;15.86;57.10
75855;BME280;64502;59.976;30.316;2023-08-24T05:51:40;101157.50;;;15.77;56.42
75855;BME280;64502;59.976;30.316;2023-08-24T05:54:05;101158.91;;;15.70;57.41
75855;BME280;64502;59.976;30.316;2023-08-24T05:56:31;101151.34;;;15.64;57.51
75855;BME280;64502;59.976;30.316;2023-08-24T05:58:58;101151.34;;;15.64;56.84
75855;BME280;64502;59.976;30.316;2023-08-24T06:01:24;101161.34;;;15.60;56.88
75855;BME280;64502;59.976;30.316;2023-08-24T06:03:50;101161.47;;;15.59;57.66
75855;BME280;64502;59.976;30.316;2023-08-24T06:06:16;101152.63;;;15.58;58.32
75855;BME280;64502;59.976;30.316;2023-08-24T06:08:41;101153.16;;;15.63;56.92
75855;BME280;64502;59.976;30.316;2023-08-24T06:11:07;101154.63;;;15.67;56.93
75855;BME280;64502;59.976;30.316;2023-08-24T06:13:33;101154.63;;;15.80;57.57
75855;BME280;64502;59.976;30.316;2023-08-24T06:15:58;101148.63;;;15.89;57.25
75855;BME280;64502;59.976;30.316;2023-08-24T06:18:24;101150.72;;;15.97;56.17
75855;BME280;64502;59.976;30.316;2023-08-24T06:20:49;101158.97;;;16.05;56.06
75855;BME280;64502;59.976;30.316;2023-08-24T06:23:18;101151.03;;;16.16;56.31
75855;BME280;64502;59.976;30.316;2023-08-24T06:25:44;101160.88;;;16.27;55.59
75855;BME280;64502;59.976;30.316;2023-08-24T06:28:10;101155.09;;;16.33;55.60
75855;BME280;64502;59.976;30.316;2023-08-24T06:30:42;101148.94;;;16.44;55.12
75855;BME280;64502;59.976;30.316;2023-08-24T06:33:12;101156.13;;;16.55;55.16
75855;BME280;64502;59.976;30.316;2023-08-24T06:35:38;101157.88;;;16.67;55.06
75855;BME280;64502;59.976;30.316;2023-08-24T06:38:03;101155.69;;;16.72;54.84
75855;BME280;64502;59.976;30.316;2023-08-24T06:40:30;101164.09;;;16.79;55.06
75855;BME280;64502;59.976;30.316;2023-08-24T06:42:58;101159.25;;;16.84;53.99
75855;BME280;64502;59.976;30.316;2023-08-24T06:45:24;101160.72;;;16.88;55.01
75855;BME280;64502;59.976;30.316;2023-08-24T06:47:50;101163.03;;;16.93;54.36
75855;BME280;64502;59.976;30.316;2023-08-24T06:50:16;101159.28;;;16.95;54.11
75855;BME280;64502;59.976;30.316;2023-08-24T06:52:42;101158.78;;;17.01;53.90
75855;BME280;64502;59.976;30.316;2023-08-24T06:55:10;101154.69;;;17.08;53.75
75855;BME280;64502;59.976;30.316;2023-08-24T06:57:37;101161.09;;;17.17;54.57
75855;BME280;64502;59.976;30.316;2023-08-24T07:00:03;101156.00;;;17.25;54.20
75855;BME280;64502;59.976;30.316;2023-08-24T07:02:32;101156.34;;;17.32;54.34
75855;BME280;64502;59.976;30.316;2023-08-24T07:04:58;101162.81;;;17.41;54.18
75855;BME280;64502;59.976;30.316;2023-08-24T07:07:24;101164.97;;;17.47;53.72
75855;BME280;64502;59.976;30.316;2023-08-24T07:09:50;101169.06;;;17.51;53.46
75855;BME280;64502;59.976;30.316;2023-08-24T07:12:16;101171.63;;;17.52;53.55
75855;BME280;64502;59.976;30.316;2023-08-24T07:14:41;101168.69;;;17.67;53.42
75855;BME280;64502;59.976;30.316;2023-08-24T07:17:07;101177.66;;;17.77;53.50
75855;BME280;64502;59.976;30.316;2023-08-24T07:19:32;101172.22;;;17.79;53.46
75855;BME280;64502;59.976;30.316;2023-08-24T07:21:58;101170.75;;;17.86;53.37
75855;BME280;64502;59.976;30.316;2023-08-24T07:24:23;101173.06;;;17.90;53.68
75855;BME280;64502;59.976;30.316;2023-08-24T07:26:52;101178.97;;;17.94;53.23
75855;BME280;64502;59.976;30.316;2023-08-24T07:29:18;101179.97;;;17.93;54.34
75855;BME280;64502;59.976;30.316;2023-08-24T07:31:43;101175.31;;;17.95;53.70
75855;BME280;64502;59.976;30.316;2023-08-24T07:34:09;101178.47;;;18.00;53.54
75855;BME280;64502;59.976;30.316;2023-08-24T07:36:34;101174.44;;;18.06;53.88
75855;BME280;64502;59.976;30.316;2023-08-24T07:39:00;101180.19;;;18.01;54.03
75855;BME280;64502;59.976;30.316;2023-08-24T07:41:25;101176.44;;;17.92;54.31
75855;BME280;64502;59.976;30.316;2023-08-24T07:43:51;101186.75;;;17.86;54.94
75855;BME280;64502;59.976;30.316;2023-08-24T07:46:16;101179.13;;;17.81;54.60
75855;BME280;64502;59.976;30.316;2023-08-24T07:48:42;101186.19;;;17.82;54.99
75855;BME280;64502;59.976;30.316;2023-08-24T07:51:07;101188.72;;;17.84;55.35
75855;BME280;64502;59.976;30.316;2023-08-24T07:53:33;101189.81;;;17.92;54.83
75855;BME280;64502;59.976;30.316;2023-08-24T07:56:00;101195.25;;;17.91;54.68
75855;BME280;64502;59.976;30.316;2023-08-24T07:58:26;101190.91;;;17.79;55.25
75855;BME280;64502;59.976;30.316;2023-08-24T08:00:52;101191.13;;;17.75;55.16
75855;BME280;64502;59.976;30.316;2023-08-24T08:03:18;101192.84;;;17.77;55.02
75855;BME280;64502;59.976;30.316;2023-08-24T08:05:45;101193.09;;;17.85;54.95
75855;BME280;64502;59.976;30.316;2023-08-24T08:08:10;101185.78;;;17.98;54.99
75855;BME280;64502;59.976;30.316;2023-08-24T08:10:36;101190.69;;;18.14;54.17
75855;BME280;64502;59.976;30.316;2023-08-24T08:13:01;101190.78;;;18.24;54.21
75855;BME280;64502;59.976;30.316;2023-08-24T08:15:27;101187.53;;;18.41;53.71
75855;BME280;64502;59.976;30.316;2023-08-24T08:17:52;101186.84;;;18.60;53.60
75855;BME280;64502;59.976;30.316;2023-08-24T08:20:18;101183.69;;;18.87;52.89
75855;BME280;64502;59.976;30.316;2023-08-24T08:22:44;101186.38;;;19.18;52.07
75855;BME280;64502;59.976;30.316;2023-08-24T08:25:10;101189.16;;;19.47;51.63
75855;BME280;64502;59.976;30.316;2023-08-24T08:27:37;101176.03;;;19.74;50.59
75855;BME280;64502;59.976;30.316;2023-08-24T08:30:03;101184.41;;;20.01;50.08
75855;BME280;64502;59.976;30.316;2023-08-24T08:32:30;101182.16;;;20.15;49.65
75855;BME280;64502;59.976;30.316;2023-08-24T08:34:55;101176.09;;;20.23;49.44
75855;BME280;64502;59.976;30.316;2023-08-24T08:37:23;101181.47;;;20.33;48.94
75855;BME280;64502;59.976;30.316;2023-08-24T08:39:49;101177.53;;;20.27;49.36
75855;BME280;64502;59.976;30.316;2023-08-24T08:42:14;101191.31;;;20.32;48.61
75855;BME280;64502;59.976;30.316;2023-08-24T08:44:41;101173.00;;;20.47;48.93
75855;BME280;64502;59.976;30.316;2023-08-24T08:47:08;101175.25;;;20.61;48.45
75855;BME280;64502;59.976;30.316;2023-08-24T08:49:35;101172.72;;;20.70;47.71
75855;BME280;64502;59.976;30.316;2023-08-24T08:52:02;101164.97;;;20.67;47.73
75855;BME280;64502;59.976;30.316;2023-08-24T08:54:29;101175.44;;;20.60;48.17
75855;BME280;64502;59.976;30.316;2023-08-24T08:56:54;101182.72;;;20.48;48.23
75855;BME280;64502;59.976;30.316;2023-08-24T08:59:21;101170.59;;;20.34;48.04
75855;BME280;64502;59.976;30.316;2023-08-24T09:01:48;101171.16;;;20.28;48.21
75855;BME280;64502;59.976;30.316;2023-08-24T09:04:16;101169.06;;;20.42;48.19
75855;BME280;64502;59.976;30.316;2023-08-24T09:06:41;101164.66;;;20.50;47.50
75855;BME280;64502;59.976;30.316;2023-08-24T09:09:07;101164.69;;;20.60;47.09
75855;BME280;64502;59.976;30.316;2023-08-24T09:11:33;101166.50;;;20.69;47.09
75855;BME280;64502;59.976;30.316;2023-08-24T09:13:59;101162.53;;;20.83;47.04
75855;BME280;64502;59.976;30.316;2023-08-24T09:16:29;101158.81;;;21.03;47.53
75855;BME280;64502;59.976;30.316;2023-08-24T09:18:54;101158.25;;;21.27;46.48
75855;BME280;64502;59.976;30.316;2023-08-24T09:21:20;101157.75;;;21.52;46.20
75855;BME280;64502;59.976;30.316;2023-08-24T09:23:54;101162.25;;;21.79;46.57
75855;BME280;64502;59.976;30.316;2023-08-24T09:26:32;101155.28;;;21.86;45.20
75855;BME280;64502;59.976;30.316;2023-08-24T09:28:59;101153.59;;;21.85;44.97
75855;BME280;64502;59.976;30.316;2023-08-24T09:31:35;101148.69;;;21.98;45.25
75855;BME280;64502;59.976;30.316;2023-08-24T09:34:02;101147.16;;;22.13;44.36
75855;BME280;64502;59.976;30.316;2023-08-24T09:36:32;101149.91;;;22.57;43.90
75855;BME280;64502;59.976;30.316;2023-08-24T09:38:59;101142.81;;;23.00;42.41
75855;BME280;64502;59.976;30.316;2023-08-24T09:41:43;101140.56;;;23.22;42.41
75855;BME280;64502;59.976;30.316;2023-08-24T09:44:09;101139.03;;;23.19;42.19
75855;BME280;64502;59.976;30.316;2023-08-24T09:46:35;101137.44;;;23.00;41.81
75855;BME280;64502;59.976;30.316;2023-08-24T09:49:01;101138.78;;;22.78;42.07
75855;BME280;64502;59.976;30.316;2023-08-24T09:51:27;101139.34;;;22.64;41.90
75855;BME280;64502;59.976;30.316;2023-08-24T09:53:57;101140.63;;;22.52;42.80
75855;BME280;64502;59.976;30.316;2023-08-24T09:56:28;101139.22;;;22.48;43.03
75855;BME280;64502;59.976;30.316;2023-08-24T09:58:54;101130.19;;;22.49;42.70
75855;BME280;64502;59.976;30.316;2023-08-24T10:01:23;101131.59;;;22.61;42.40
75855;BME280;64502;59.976;30.316;2023-08-24T10:03:51;101127.44;;;22.67;43.06
75855;BME280;64502;59.976;30.316;2023-08-24T10:06:21;101127.00;;;22.79;42.24
75855;BME280;64502;59.976;30.316;2023-08-24T10:08:55;101130.56;;;23.06;42.98
75855;BME280;64502;59.976;30.316;2023-08-24T10:11:26;101121.47;;;23.49;41.94
75855;BME280;64502;59.976;30.316;2023-08-24T10:16:28;101116.66;;;24.84;38.48
75855;BME280;64502;59.976;30.316;2023-08-24T10:18:55;101129.19;;;25.33;36.79
75855;BME280;64502;59.976;30.316;2023-08-24T10:21:21;101118.16;;;25.74;36.75
75855;BME280;64502;59.976;30.316;2023-08-24T10:23:51;101114.16;;;26.16;35.07
75855;BME280;64502;59.976;30.316;2023-08-24T10:26:18;101109.06;;;26.59;35.19
75855;BME280;64502;59.976;30.316;2023-08-24T10:28:45;101122.72;;;27.10;34.39
75855;BME280;64502;59.976;30.316;2023-08-24T10:31:11;101104.34;;;27.56;33.87
75855;BME280;64502;59.976;30.316;2023-08-24T10:33:37;101109.31;;;28.10;32.97
75855;BME280;64502;59.976;30.316;2023-08-24T10:36:06;101112.00;;;28.32;32.55
75855;BME280;64502;59.976;30.316;2023-08-24T10:38:35;101111.13;;;28.31;32.37
75855;BME280;64502;59.976;30.316;2023-08-24T10:41:05;101100.91;;;28.33;32.04
75855;BME280;64502;59.976;30.316;2023-08-24T10:43:37;101092.50;;;28.50;31.62
75855;BME280;64502;59.976;30.316;2023-08-24T10:46:03;101098.69;;;28.65;30.99
75855;BME280;64502;59.976;30.316;2023-08-24T10:56:17;101096.16;;;27.71;32.83
75855;BME280;64502;59.976;30.316;2023-08-24T10:58:44;101086.91;;;28.30;32.28
75855;BME280;64502;59.976;30.316;2023-08-24T11:01:17;101086.81;;;29.08;31.36
75855;BME280;64502;59.976;30.316;2023-08-24T11:03:49;101092.72;;;29.18;30.53
75855;BME280;64502;59.976;30.316;2023-08-24T11:06:23;101099.53;;;28.72;30.63
75855;BME280;64502;59.976;30.316;2023-08-24T11:09:04;101086.00;;;28.44;30.93
75855;BME280;64502;59.976;30.316;2023-08-24T11:11:30;101084.31;;;28.71;34.02
75855;BME280;64502;59.976;30.316;2023-08-24T11:14:15;101101.56;;;28.36;32.05
75855;BME280;64502;59.976;30.316;2023-08-24T11:16:57;101107.00;;;27.05;30.49
75855;BME280;64502;59.976;30.316;2023-08-24T11:19:23;101096.81;;;26.63;31.06
75855;BME280;64502;59.976;30.316;2023-08-24T11:21:48;101095.66;;;26.42;30.85
75855;BME280;64502;59.976;30.316;2023-08-24T11:24:15;101095.66;;;26.42;31.32
75855;BME280;64502;59.976;30.316;2023-08-24T11:26:50;101094.34;;;27.20;32.62
75855;BME280;64502;59.976;30.316;2023-08-24T11:29:17;101092.44;;;27.06;30.49
75855;BME280;64502;59.976;30.316;2023-08-24T11:31:44;101094.50;;;27.19;29.66
75855;BME280;64502;59.976;30.316;2023-08-24T11:34:10;101092.44;;;26.62;31.39
75855;BME280;64502;59.976;30.316;2023-08-24T11:36:48;101093.19;;;26.55;32.38
75855;BME280;64502;59.976;30.316;2023-08-24T11:39:16;101093.00;;;26.87;31.97
75855;BME280;64502;59.976;30.316;2023-08-24T11:41:43;101086.19;;;27.57;30.91
75855;BME280;64502;59.976;30.316;2023-08-24T11:44:09;101080.19;;;28.26;30.69
75855;BME280;64502;59.976;30.316;2023-08-24T11:46:36;101084.69;;;29.03;29.17
75855;BME280;64502;59.976;30.316;2023-08-24T11:49:05;101076.63;;;28.47;29.80
75855;BME280;64502;59.976;30.316;2023-08-24T11:51:31;101080.22;;;28.04;30.58
75855;BME280;64502;59.976;30.316;2023-08-24T11:53:59;101075.66;;;27.83;30.87
75855;BME280;64502;59.976;30.316;2023-08-24T11:56:24;101076.09;;;28.08;30.78
75855;BME280;64502;59.976;30.316;2023-08-24T11:58:50;101074.75;;;28.82;29.97
75855;BME280;64502;59.976;30.316;2023-08-24T12:01:16;101057.78;;;29.96;28.95
75855;BME280;64502;59.976;30.316;2023-08-24T12:03:42;101064.06;;;31.15;27.25
75855;BME280;64502;59.976;30.316;2023-08-24T12:06:12;101069.19;;;31.81;25.90
75855;BME280;64502;59.976;30.316;2023-08-24T12:08:42;101064.41;;;32.02;25.06
75855;BME280;64502;59.976;30.316;2023-08-24T12:11:19;101057.75;;;32.66;26.08
75855;BME280;64502;59.976;30.316;2023-08-24T12:13:55;101056.25;;;33.37;25.51
75855;BME280;64502;59.976;30.316;2023-08-24T12:16:21;101061.13;;;33.66;22.45
75855;BME280;64502;59.976;30.316;2023-08-24T12:18:49;101050.31;;;33.82;22.11
75855;BME280;64502;59.976;30.316;2023-08-24T12:21:14;101047.28;;;34.26;21.52
75855;BME280;64502;59.976;30.316;2023-08-24T12:23:40;101056.47;;;34.08;20.71
75855;BME280;64502;59.976;30.316;2023-08-24T12:26:05;101050.41;;;33.64;21.21
75855;BME280;64502;59.976;30.316;2023-08-24T12:28:34;101051.13;;;33.41;21.48
75855;BME280;64502;59.976;30.316;2023-08-24T12:31:01;101040.88;;;33.36;21.45
75855;BME280;64502;59.976;30.316;2023-08-24T12:33:29;101047.59;;;33.22;21.76
75855;BME280;64502;59.976;30.316;2023-08-24T12:35:56;101039.81;;;33.07;21.72
75855;BME280;64502;59.976;30.316;2023-08-24T12:38:22;101041.47;;;33.69;21.48
75855;BME280;64502;59.976;30.316;2023-08-24T12:40:49;101034.72;;;33.71;21.43
75855;BME280;64502;59.976;30.316;2023-08-24T12:43:14;101032.28;;;34.29;21.08
75855;BME280;64502;59.976;30.316;2023-08-24T12:45:40;101031.72;;;35.31;20.08
75855;BME280;64502;59.976;30.316;2023-08-24T12:48:06;101033.03;;;36.25;19.27
75855;BME280;64502;59.976;30.316;2023-08-24T12:50:35;101049.72;;;34.98;19.83
75855;BME280;64502;59.976;30.316;2023-08-24T12:53:01;101032.38;;;34.69;19.94